createdAt,value
2023-12-23T00:00:36.879Z,87458.00
2023-12-23T00:01:36.890Z,87458.00
2023-12-23T00:02:36.858Z,87446.00
2023-12-23T00:03:36.939Z,87445.00
2023-12-23T00:04:36.876Z,87461.00
2023-12-23T00:05:36.881Z,87474.00
2023-12-23T00:06:36.856Z,87473.00
2023-12-23T00:07:36.920Z,87457.00
2023-12-23T00:08:36.843Z,87443.00
2023-12-23T00:09:36.856Z,87442.00
2023-12-23T00:10:36.841Z,87441.00
2023-12-23T00:11:36.861Z,87444.00
2023-12-23T00:12:37.012Z,87453.00
2023-12-23T00:13:36.994Z,87455.00
2023-12-23T00:14:37.010Z,87450.00
2023-12-23T00:15:37.065Z,87455.00
2023-12-23T00:16:37.165Z,87451.00
2023-12-23T00:17:37.492Z,87441.00
2023-12-23T00:18:37.249Z,87445.00
2023-12-23T00:19:37.174Z,87455.00
2023-12-23T00:20:37.175Z,87456.00
2023-12-23T00:21:37.163Z,87452.00
2023-12-23T00:22:37.121Z,87448.00
2023-12-23T00:23:37.067Z,87449.00
2023-12-23T00:24:37.042Z,87455.00
2023-12-23T00:25:37.122Z,87460.00
2023-12-23T00:26:37.047Z,87448.00
2023-12-23T00:27:37.066Z,87444.00
2023-12-23T00:28:37.076Z,87457.00
2023-12-23T00:29:37.022Z,87469.00
2023-12-23T00:30:37.101Z,87476.00
2023-12-23T00:31:37.074Z,87477.00
2023-12-23T00:32:37.025Z,87462.00
2023-12-23T00:33:37.024Z,87455.00
2023-12-23T00:34:37.026Z,87467.00
2023-12-23T00:35:36.981Z,87474.00
2023-12-23T00:36:36.990Z,87468.00
2023-12-23T00:37:37.096Z,87467.00
2023-12-23T00:38:36.974Z,87468.00
2023-12-23T00:39:37.007Z,87469.00
2023-12-23T00:40:37.004Z,87472.00
2023-12-23T00:41:36.948Z,87469.00
2023-12-23T00:42:36.952Z,87467.00
2023-12-23T00:43:36.949Z,87470.00
2023-12-23T00:44:37.010Z,87473.00
2023-12-23T00:45:36.943Z,87475.00
2023-12-23T00:46:36.956Z,87479.00
2023-12-23T00:47:38.574Z,87485.00
2023-12-23T00:48:36.917Z,87486.00
2023-12-23T00:49:36.882Z,87485.00
2023-12-23T00:50:36.868Z,87472.00
2023-12-23T00:51:36.918Z,87468.00
2023-12-23T00:52:36.979Z,87474.00
2023-12-23T00:53:37.007Z,87482.00
2023-12-23T00:54:37.057Z,87486.00
2023-12-23T00:55:37.153Z,87486.00
2023-12-23T00:56:37.198Z,87480.00
2023-12-23T00:57:37.239Z,87481.00
2023-12-23T00:58:37.330Z,87488.00
2023-12-23T00:59:37.353Z,87498.00
2023-12-23T01:00:37.438Z,87492.00
2023-12-23T01:01:37.493Z,87480.00
2023-12-23T01:02:37.534Z,87477.00
2023-12-23T01:03:37.720Z,87492.00
2023-12-23T01:04:37.582Z,87501.00
2023-12-23T01:05:37.556Z,87495.00
2023-12-23T01:06:37.594Z,87487.00
2023-12-23T01:07:37.604Z,87487.00
2023-12-23T01:08:37.498Z,87487.00
2023-12-23T01:09:37.493Z,87484.00
2023-12-23T01:10:37.510Z,87478.00
2023-12-23T01:11:37.490Z,87479.00
2023-12-23T01:12:37.493Z,87491.00
2023-12-23T01:13:37.528Z,87502.00
2023-12-23T01:14:37.513Z,87508.00
2023-12-23T01:15:37.514Z,87508.00
2023-12-23T01:16:37.542Z,87499.00
2023-12-23T01:17:37.494Z,87505.00
2023-12-23T01:18:37.492Z,87509.00
2023-12-23T01:19:37.468Z,87512.00
2023-12-23T01:20:37.453Z,87513.00
2023-12-23T01:21:37.430Z,87511.00
2023-12-23T01:22:37.453Z,87516.00
2023-12-23T01:23:37.409Z,87522.00
2023-12-23T01:24:37.403Z,87513.00
2023-12-23T01:25:37.424Z,87505.00
2023-12-23T01:26:37.426Z,87518.00
2023-12-23T01:27:37.390Z,87526.00
2023-12-23T01:28:37.400Z,87530.00
2023-12-23T01:29:37.384Z,87522.00
2023-12-23T01:30:37.426Z,87515.00
2023-12-23T01:31:37.363Z,87514.00
2023-12-23T01:32:37.441Z,87522.00
2023-12-23T01:33:37.379Z,87533.00
2023-12-23T01:34:37.461Z,87536.00
2023-12-23T01:35:37.301Z,87540.00
2023-12-23T01:36:37.318Z,87547.00
2023-12-23T01:37:37.293Z,87546.00
2023-12-23T01:38:37.332Z,87546.00
2023-12-23T01:39:37.261Z,87549.00
2023-12-23T01:40:37.282Z,87545.00
2023-12-23T01:41:37.234Z,87545.00
2023-12-23T01:42:37.212Z,87537.00
2023-12-23T01:43:37.235Z,87532.00
2023-12-23T01:44:37.210Z,87524.00
2023-12-23T01:45:37.170Z,87530.00
2023-12-23T01:46:37.257Z,87530.00
2023-12-23T01:47:37.198Z,87523.00
2023-12-23T01:48:37.248Z,87524.00
2023-12-23T01:49:37.154Z,87532.00
2023-12-23T01:50:37.149Z,87536.00
2023-12-23T01:51:37.127Z,87543.00
2023-12-23T01:52:37.154Z,87540.00
2023-12-23T01:53:37.080Z,87538.00
2023-12-23T01:54:37.060Z,87530.00
2023-12-23T01:55:37.074Z,87519.00
2023-12-23T01:56:37.044Z,87523.00
2023-12-23T01:57:37.082Z,87535.00
2023-12-23T01:58:37.291Z,87534.00
2023-12-23T01:59:37.195Z,87538.00
2023-12-23T02:00:37.307Z,87543.00
2023-12-23T02:01:37.421Z,87545.00
2023-12-23T02:02:37.324Z,87548.00
2023-12-23T02:03:37.274Z,87543.00
2023-12-23T02:04:37.276Z,87529.00
2023-12-23T02:05:37.393Z,87539.00
2023-12-23T02:06:37.210Z,87553.00
2023-12-23T02:07:37.247Z,87557.00
2023-12-23T02:08:37.186Z,87552.00
2023-12-23T02:09:37.199Z,87560.00
2023-12-23T02:10:37.284Z,87566.00
2023-12-23T02:11:37.317Z,87564.00
2023-12-23T02:12:39.164Z,87553.00
2023-12-23T02:13:37.419Z,87544.00
2023-12-23T02:14:37.395Z,87556.00
2023-12-23T02:15:37.355Z,87567.00
2023-12-23T02:16:37.378Z,87568.00
2023-12-23T02:17:37.352Z,87569.00
2023-12-23T02:18:37.377Z,87557.00
2023-12-23T02:19:37.336Z,87548.00
2023-12-23T02:20:37.276Z,87554.00
2023-12-23T02:21:37.321Z,87556.00
2023-12-23T02:22:37.317Z,87557.00
2023-12-23T02:23:37.267Z,87550.00
2023-12-23T02:24:37.301Z,87555.00
2023-12-23T02:25:37.294Z,87561.00
2023-12-23T02:26:37.233Z,87569.00
2023-12-23T02:27:37.223Z,87570.00
2023-12-23T02:28:37.281Z,87561.00
2023-12-23T02:29:37.222Z,87562.00
2023-12-23T02:30:37.243Z,87559.00
2023-12-23T02:31:37.267Z,87566.00
2023-12-23T02:32:37.232Z,87568.00
2023-12-23T02:33:37.240Z,87575.00
2023-12-23T02:34:37.284Z,87573.00
2023-12-23T02:35:37.218Z,87570.00
2023-12-23T02:36:37.195Z,87567.00
2023-12-23T02:37:37.198Z,87576.00
2023-12-23T02:38:37.225Z,87585.00
2023-12-23T02:39:37.267Z,87582.00
2023-12-23T02:40:37.337Z,87582.00
2023-12-23T02:41:37.370Z,87580.00
2023-12-23T02:42:37.402Z,87583.00
2023-12-23T02:43:37.480Z,87588.00
2023-12-23T02:44:37.507Z,87589.00
2023-12-23T02:45:37.573Z,87587.00
2023-12-23T02:46:37.667Z,87590.00
2023-12-23T02:47:37.755Z,87597.00
2023-12-23T02:48:37.776Z,87601.00
2023-12-23T02:49:37.798Z,87608.00
2023-12-23T02:50:37.809Z,87609.00
2023-12-23T02:51:37.883Z,87610.00
2023-12-23T02:52:37.993Z,87618.00
2023-12-23T02:53:37.982Z,87621.00
2023-12-23T02:54:38.023Z,87611.00
2023-12-23T02:56:38.141Z,87618.00
2023-12-23T02:57:38.194Z,87633.00
2023-12-23T02:58:38.285Z,87643.00
2023-12-23T02:59:38.278Z,87645.00
2023-12-23T03:00:38.365Z,87651.00
2023-12-23T03:01:38.414Z,87646.00
2023-12-23T03:02:38.434Z,87643.00
2023-12-23T03:03:38.531Z,87639.00
2023-12-23T03:04:38.590Z,87637.00
2023-12-23T03:05:38.716Z,87650.00
2023-12-23T03:06:38.672Z,87641.00
2023-12-23T03:07:38.641Z,87646.00
2023-12-23T03:08:38.603Z,87654.00
2023-12-23T03:09:38.617Z,87652.00
2023-12-23T03:10:38.593Z,87650.00
2023-12-23T03:11:38.619Z,87651.00
2023-12-23T03:12:38.587Z,87645.00
2023-12-23T03:13:38.593Z,87639.00
2023-12-23T03:14:38.533Z,87638.00
2023-12-23T03:15:38.554Z,87646.00
2023-12-23T03:16:38.631Z,87643.00
2023-12-23T03:17:38.534Z,87646.00
2023-12-23T03:18:38.547Z,87646.00
2023-12-23T03:19:38.546Z,87653.00
2023-12-23T03:20:38.502Z,87659.00
2023-12-23T03:21:38.485Z,87652.00
2023-12-23T03:22:38.525Z,87651.00
2023-12-23T03:23:38.510Z,87654.00
2023-12-23T03:24:38.528Z,87658.00
2023-12-23T03:25:38.493Z,87663.00
2023-12-23T03:26:38.431Z,87669.00
2023-12-23T03:27:38.417Z,87661.00
2023-12-23T03:28:38.428Z,87663.00
2023-12-23T03:29:38.385Z,87665.00
2023-12-23T03:30:38.416Z,87662.00
2023-12-23T03:31:38.394Z,87666.00
2023-12-23T03:32:38.353Z,87670.00
2023-12-23T03:33:38.409Z,87673.00
2023-12-23T03:34:38.338Z,87667.00
2023-12-23T03:35:38.291Z,87669.00
2023-12-23T03:36:38.274Z,87668.00
2023-12-23T03:37:38.302Z,87667.00
2023-12-23T03:38:38.253Z,87668.00
2023-12-23T03:39:38.237Z,87668.00
2023-12-23T03:40:38.256Z,87670.00
2023-12-23T03:41:38.233Z,87672.00
2023-12-23T03:42:38.180Z,87671.00
2023-12-23T03:43:38.212Z,87669.00
2023-12-23T03:44:38.154Z,87672.00
2023-12-23T03:45:38.149Z,87675.00
2023-12-23T03:46:38.221Z,87669.00
2023-12-23T03:47:38.164Z,87654.00
2023-12-23T03:48:38.208Z,87654.00
2023-12-23T03:49:38.201Z,87674.00
2023-12-23T03:50:38.238Z,87688.00
2023-12-23T03:51:38.229Z,87690.00
2023-12-23T03:52:38.229Z,87689.00
2023-12-23T03:53:38.206Z,87690.00
2023-12-23T03:54:38.183Z,87681.00
2023-12-23T03:55:38.228Z,87672.00
2023-12-23T03:56:38.194Z,87675.00
2023-12-23T03:57:38.196Z,87679.00
2023-12-23T03:58:38.168Z,87681.00
2023-12-23T03:59:38.142Z,87685.00
2023-12-23T04:00:38.210Z,87687.00
2023-12-23T04:01:38.341Z,87693.00
2023-12-23T04:02:38.234Z,87689.00
2023-12-23T04:03:38.300Z,87682.00
2023-12-23T04:04:38.359Z,87679.00
2023-12-23T04:05:38.393Z,87682.00
2023-12-23T04:06:38.479Z,87687.00
2023-12-23T04:07:38.553Z,87686.00
2023-12-23T04:08:38.552Z,87678.00
2023-12-23T04:09:38.532Z,87665.00
2023-12-23T04:10:38.573Z,87671.00
2023-12-23T04:11:38.531Z,87671.00
2023-12-23T04:12:38.516Z,87677.00
2023-12-23T04:13:38.579Z,87688.00
2023-12-23T04:14:38.468Z,87691.00
2023-12-23T04:15:38.449Z,87690.00
2023-12-23T04:16:38.499Z,87694.00
2023-12-23T04:17:38.472Z,87693.00
2023-12-23T04:18:38.506Z,87695.00
2023-12-23T04:19:38.414Z,87698.00
2023-12-23T04:20:38.414Z,87694.00
2023-12-23T04:21:38.512Z,87696.00
2023-12-23T04:22:38.635Z,87696.00
2023-12-23T04:23:38.585Z,87697.00
2023-12-23T04:24:38.589Z,87706.00
2023-12-23T04:25:38.704Z,87712.00
2023-12-23T04:26:38.703Z,87717.00
2023-12-23T04:27:38.739Z,87721.00
2023-12-23T04:28:38.715Z,87720.00
2023-12-23T04:29:38.685Z,87709.00
2023-12-23T04:30:38.755Z,87717.00
2023-12-23T04:31:38.772Z,87719.00
2023-12-23T04:32:38.791Z,87717.00
2023-12-23T04:33:38.745Z,87726.00
2023-12-23T04:34:38.678Z,87712.00
2023-12-23T04:35:38.650Z,87710.00
2023-12-23T04:36:38.718Z,87716.00
2023-12-23T04:37:38.825Z,87721.00
2023-12-23T04:38:38.804Z,87717.00
2023-12-23T04:39:38.853Z,87714.00
2023-12-23T04:40:38.935Z,87712.00
2023-12-23T04:41:38.989Z,87718.00
2023-12-23T04:42:39.028Z,87717.00
2023-12-23T04:43:39.172Z,87714.00
2023-12-23T04:44:39.154Z,87713.00
2023-12-23T04:45:39.206Z,87718.00
2023-12-23T04:46:39.319Z,87726.00
2023-12-23T04:47:39.390Z,87735.00
2023-12-23T04:48:39.425Z,87733.00
2023-12-23T04:49:39.483Z,87728.00
2023-12-23T04:50:39.477Z,87724.00
2023-12-23T04:51:46.825Z,87730.00
2023-12-23T04:52:46.912Z,87735.00
2023-12-23T04:53:46.815Z,87740.00
2023-12-23T04:54:46.830Z,87741.00
2023-12-23T04:55:46.857Z,87747.00
2023-12-23T04:56:46.866Z,87743.00
2023-12-23T04:57:46.866Z,87736.00
2023-12-23T04:58:46.937Z,87732.00
2023-12-23T04:59:46.911Z,87729.00
2023-12-23T05:00:46.941Z,87735.00
2023-12-23T05:01:46.972Z,87741.00
2023-12-23T05:02:47.156Z,87742.00
2023-12-23T05:03:46.992Z,87741.00
2023-12-23T05:04:46.990Z,87741.00
2023-12-23T05:05:47.065Z,87738.00
2023-12-23T05:06:47.046Z,87742.00
2023-12-23T05:07:47.042Z,87740.00
2023-12-23T05:08:47.061Z,87740.00
2023-12-23T05:09:47.059Z,87739.00
2023-12-23T05:10:47.163Z,87746.00
2023-12-23T05:11:50.742Z,87746.00
2023-12-23T05:12:47.088Z,87742.00
2023-12-23T05:13:47.160Z,87745.00
2023-12-23T05:14:47.122Z,87750.00
2023-12-23T05:15:47.137Z,87753.00
2023-12-23T05:16:47.253Z,87749.00
2023-12-23T05:17:47.246Z,87740.00
2023-12-23T05:18:47.527Z,87735.00
2023-12-23T05:19:47.212Z,87736.00
2023-12-23T05:20:47.215Z,87738.00
2023-12-23T05:21:47.221Z,87748.00
2023-12-23T05:22:47.682Z,87753.00
2023-12-23T05:23:47.252Z,87748.00
2023-12-23T05:24:47.245Z,87750.00
2023-12-23T05:25:47.331Z,87754.00
2023-12-23T05:26:47.288Z,87755.00
2023-12-23T05:27:47.303Z,87752.00
2023-12-23T05:28:47.350Z,87754.00
2023-12-23T05:29:47.337Z,87755.00
2023-12-23T05:30:47.464Z,87755.00
2023-12-23T05:31:47.461Z,87753.00
2023-12-23T05:32:47.751Z,87758.00
2023-12-23T05:33:47.504Z,87760.00
2023-12-23T05:34:47.490Z,87766.00
2023-12-23T05:35:47.473Z,87766.00
2023-12-23T05:36:47.503Z,87759.00
2023-12-23T05:37:47.502Z,87758.00
2023-12-23T05:38:47.512Z,87756.00
2023-12-23T05:39:47.510Z,87752.00
2023-12-23T05:40:47.558Z,87746.00
2023-12-23T05:41:47.564Z,87739.00
2023-12-23T05:42:47.800Z,87735.00
2023-12-23T05:43:47.673Z,87730.00
2023-12-23T05:44:47.620Z,87727.00
2023-12-23T05:45:47.660Z,87729.00
2023-12-23T05:46:47.752Z,87730.00
2023-12-23T05:47:47.816Z,87735.00
2023-12-23T05:48:47.846Z,87732.00
2023-12-23T05:49:47.770Z,87728.00
2023-12-23T05:50:47.760Z,87730.00
2023-12-23T05:51:47.798Z,87734.00
2023-12-23T05:52:47.902Z,87736.00
2023-12-23T05:53:47.837Z,87743.00
2023-12-23T05:54:47.894Z,87740.00
2023-12-23T05:55:48.129Z,87734.00
2023-12-23T05:56:48.017Z,87728.00
2023-12-23T05:57:48.092Z,87730.00
2023-12-23T05:58:48.178Z,87739.00
2023-12-23T05:59:48.217Z,87741.00
2023-12-23T06:00:48.297Z,87741.00
2023-12-23T06:01:48.438Z,87740.00
2023-12-23T06:02:48.542Z,87745.00
2023-12-23T06:03:48.498Z,87745.00
2023-12-23T06:04:48.536Z,87746.00
2023-12-23T06:05:48.624Z,87744.00
2023-12-23T06:06:48.644Z,87743.00
2023-12-23T06:07:48.721Z,87742.00
2023-12-23T06:08:48.755Z,87738.00
2023-12-23T06:09:48.815Z,87732.00
2023-12-23T06:10:57.211Z,87727.00
2023-12-23T06:11:49.978Z,87729.00
2023-12-23T06:12:49.381Z,87736.00
2023-12-23T06:13:48.947Z,87740.00
2023-12-23T06:14:48.936Z,87738.00
2023-12-23T06:15:48.957Z,87737.00
2023-12-23T06:16:49.047Z,87742.00
2023-12-23T06:17:49.001Z,87745.00
2023-12-23T06:18:49.098Z,87748.00
2023-12-23T06:19:49.142Z,87749.00
2023-12-23T06:20:49.059Z,87748.00
2023-12-23T06:21:49.075Z,87749.00
2023-12-23T06:22:49.317Z,87755.00
2023-12-23T06:23:49.093Z,87752.00
2023-12-23T06:24:49.146Z,87751.00
2023-12-23T06:25:49.162Z,87750.00
2023-12-23T06:26:49.154Z,87753.00
2023-12-23T06:27:49.169Z,87756.00
2023-12-23T06:28:49.224Z,87758.00
2023-12-23T06:29:49.200Z,87756.00
2023-12-23T06:30:49.237Z,87754.00
2023-12-23T06:31:49.302Z,87757.00
2023-12-23T06:32:49.708Z,87756.00
2023-12-23T06:33:49.362Z,87756.00
2023-12-23T06:34:49.304Z,87755.00
2023-12-23T06:35:49.379Z,87755.00
2023-12-23T06:36:49.338Z,87751.00
2023-12-23T06:37:49.340Z,87746.00
2023-12-23T06:38:49.335Z,87746.00
2023-12-23T06:39:49.389Z,87741.00
2023-12-23T06:40:49.409Z,87736.00
2023-12-23T06:41:49.433Z,87738.00
2023-12-23T06:42:49.596Z,87742.00
2023-12-23T06:43:52.734Z,87742.00
2023-12-23T06:44:49.448Z,87738.00
2023-12-23T06:45:49.499Z,87732.00
2023-12-23T06:46:49.498Z,87733.00
2023-12-23T06:47:49.700Z,87738.00
2023-12-23T06:48:49.659Z,87742.00
2023-12-23T06:49:49.658Z,87744.00
2023-12-23T06:50:49.586Z,87746.00
2023-12-23T06:51:49.587Z,87746.00
2023-12-23T06:52:49.870Z,87746.00
2023-12-23T06:53:49.628Z,87748.00
2023-12-23T06:54:49.617Z,87752.00
2023-12-23T06:55:49.669Z,87758.00
2023-12-23T06:56:49.658Z,87757.00
2023-12-23T06:57:49.672Z,87759.00
2023-12-23T06:58:49.729Z,87757.00
2023-12-23T06:59:49.766Z,87753.00
2023-12-23T07:00:49.724Z,87755.00
2023-12-23T07:01:49.784Z,87756.00
2023-12-23T07:02:49.949Z,87753.00
2023-12-23T07:03:49.885Z,87755.00
2023-12-23T07:04:49.798Z,87759.00
2023-12-23T07:05:49.890Z,87760.00
2023-12-23T07:06:49.830Z,87756.00
2023-12-23T07:07:49.967Z,87757.00
2023-12-23T07:08:49.844Z,87754.00
2023-12-23T07:09:55.290Z,87755.00
2023-12-23T07:10:50.909Z,87759.00
2023-12-23T07:11:50.290Z,87763.00
2023-12-23T07:12:50.162Z,87758.00
2023-12-23T07:13:49.967Z,87756.00
2023-12-23T07:14:49.949Z,87757.00
2023-12-23T07:15:49.959Z,87758.00
2023-12-23T07:16:50.013Z,87759.00
2023-12-23T07:17:50.109Z,87762.00
2023-12-23T07:18:50.105Z,87771.00
2023-12-23T07:19:50.055Z,87771.00
2023-12-23T07:20:50.034Z,87766.00
2023-12-23T07:21:50.085Z,87758.00
2023-12-23T07:22:50.417Z,87765.00
2023-12-23T07:23:50.067Z,87775.00
2023-12-23T07:24:50.069Z,87778.00
2023-12-23T07:25:50.174Z,87777.00
2023-12-23T07:26:50.145Z,87775.00
2023-12-23T07:27:50.120Z,87771.00
2023-12-23T07:28:50.203Z,87778.00
2023-12-23T07:29:50.249Z,87791.00
2023-12-23T07:30:50.390Z,87797.00
2023-12-23T07:31:50.345Z,87797.00
2023-12-23T07:32:50.832Z,87795.00
2023-12-23T07:33:50.384Z,87797.00
2023-12-23T07:34:50.348Z,87809.00
2023-12-23T07:35:50.351Z,87817.00
2023-12-23T07:36:50.367Z,87820.00
2023-12-23T07:37:50.440Z,87823.00
2023-12-23T07:38:50.368Z,87825.00
2023-12-23T07:39:50.392Z,87818.00
2023-12-23T07:40:50.434Z,87816.00
2023-12-23T07:41:50.428Z,87819.00
2023-12-23T07:42:50.678Z,87826.00
2023-12-23T07:43:50.515Z,87835.00
2023-12-23T07:44:50.540Z,87844.00
2023-12-23T07:45:50.593Z,87845.00
2023-12-23T07:46:50.699Z,87841.00
2023-12-23T07:47:50.724Z,87839.00
2023-12-23T07:48:50.720Z,87841.00
2023-12-23T07:49:50.711Z,87845.00
2023-12-23T07:50:50.685Z,87847.00
2023-12-23T07:51:50.707Z,87849.00
2023-12-23T07:52:50.988Z,87854.00
2023-12-23T07:53:50.740Z,87854.00
2023-12-23T07:54:50.731Z,87856.00
2023-12-23T07:55:50.772Z,87858.00
2023-12-23T07:56:50.766Z,87865.00
2023-12-23T07:57:50.784Z,87871.00
2023-12-23T07:58:50.810Z,87868.00
2023-12-23T07:59:50.772Z,87864.00
2023-12-23T08:00:50.856Z,87866.00
2023-12-23T08:01:50.868Z,87868.00
2023-12-23T08:02:51.160Z,87868.00
2023-12-23T08:03:50.859Z,87865.00
2023-12-23T08:04:50.914Z,87856.00
2023-12-23T08:05:50.930Z,87858.00
2023-12-23T08:06:50.939Z,87865.00
2023-12-23T08:07:50.958Z,87857.00
2023-12-23T08:08:50.972Z,87845.00
2023-12-23T08:09:51.009Z,87846.00
2023-12-23T08:10:51.097Z,87850.00
2023-12-23T08:11:51.105Z,87859.00
2023-12-23T08:12:51.397Z,87872.00
2023-12-23T08:13:51.115Z,87873.00
2023-12-23T08:14:51.121Z,87869.00
2023-12-23T08:15:51.117Z,87859.00
2023-12-23T08:16:51.182Z,87862.00
2023-12-23T08:17:51.333Z,87855.00
2023-12-23T08:18:51.224Z,87863.00
2023-12-23T08:19:51.178Z,87869.00
2023-12-23T08:20:51.188Z,87866.00
2023-12-23T08:21:51.193Z,87866.00
2023-12-23T08:22:51.449Z,87864.00
2023-12-23T08:23:51.241Z,87862.00
2023-12-23T08:24:51.232Z,87863.00
2023-12-23T08:25:51.295Z,87858.00
2023-12-23T08:26:51.262Z,87851.00
2023-12-23T08:27:51.275Z,87847.00
2023-12-23T08:28:51.332Z,87848.00
2023-12-23T08:29:51.298Z,87849.00
2023-12-23T08:30:51.337Z,87855.00
2023-12-23T08:31:51.349Z,87852.00
2023-12-23T08:32:51.522Z,87840.00
2023-12-23T08:33:51.424Z,87835.00
2023-12-23T08:34:51.449Z,87836.00
2023-12-23T08:35:51.367Z,87830.00
2023-12-23T08:36:51.427Z,87829.00
2023-12-23T08:37:51.557Z,87834.00
2023-12-23T08:38:51.548Z,87835.00
2023-12-23T08:39:51.428Z,87836.00
2023-12-23T08:40:51.456Z,87835.00
2023-12-23T08:41:51.478Z,87837.00
2023-12-23T08:42:51.642Z,87834.00
2023-12-23T08:43:51.514Z,87831.00
2023-12-23T08:44:51.495Z,87835.00
2023-12-23T08:45:51.493Z,87842.00
2023-12-23T08:46:51.586Z,87847.00
2023-12-23T08:47:51.828Z,87849.00
2023-12-23T08:48:51.585Z,87852.00
2023-12-23T08:49:51.548Z,87856.00
2023-12-23T08:50:51.571Z,87857.00
2023-12-23T08:51:51.583Z,87855.00
2023-12-23T08:52:51.597Z,87855.00
2023-12-23T08:53:51.568Z,87859.00
2023-12-23T08:54:51.599Z,87864.00
2023-12-23T08:55:51.664Z,87866.00
2023-12-23T08:56:51.612Z,87864.00
2023-12-23T08:57:51.915Z,87856.00
2023-12-23T08:58:51.649Z,87851.00
2023-12-23T08:59:51.645Z,87850.00
2023-12-23T09:00:51.650Z,87855.00
2023-12-23T09:01:51.705Z,87857.00
2023-12-23T09:02:51.798Z,87855.00
2023-12-23T09:03:51.811Z,87852.00
2023-12-23T09:04:51.836Z,87853.00
2023-12-23T09:05:51.975Z,87849.00
2023-12-23T09:06:51.871Z,87847.00
2023-12-23T09:07:52.264Z,87850.00
2023-12-23T09:08:51.959Z,87852.00
2023-12-23T09:09:51.897Z,87860.00
2023-12-23T09:10:51.975Z,87864.00
2023-12-23T09:11:51.977Z,87864.00
2023-12-23T09:12:51.967Z,87860.00
2023-12-23T09:13:52.020Z,87864.00
2023-12-23T09:14:51.971Z,87868.00
2023-12-23T09:15:51.971Z,87873.00
2023-12-23T09:16:52.085Z,87875.00
2023-12-23T09:17:52.420Z,87876.00
2023-12-23T09:18:52.129Z,87875.00
2023-12-23T09:19:52.075Z,87869.00
2023-12-23T09:20:52.042Z,87862.00
2023-12-23T09:21:52.044Z,87857.00
2023-12-23T09:22:52.083Z,87855.00
2023-12-23T09:23:52.060Z,87854.00
2023-12-23T09:24:52.072Z,87850.00
2023-12-23T09:25:52.131Z,87846.00
2023-12-23T09:26:52.139Z,87840.00
2023-12-23T09:27:52.242Z,87846.00
2023-12-23T09:28:52.175Z,87846.00
2023-12-23T09:29:54.590Z,87845.00
2023-12-23T09:30:52.179Z,87850.00
2023-12-23T09:31:52.204Z,87853.00
2023-12-23T09:32:52.287Z,87850.00
2023-12-23T09:33:52.229Z,87849.00
2023-12-23T09:34:52.304Z,87850.00
2023-12-23T09:35:52.206Z,87851.00
2023-12-23T09:36:52.262Z,87853.00
2023-12-23T09:37:52.525Z,87852.00
2023-12-23T09:38:52.260Z,87845.00
2023-12-23T09:39:52.314Z,87842.00
2023-12-23T09:40:52.355Z,87843.00
2023-12-23T09:41:52.305Z,87843.00
2023-12-23T09:42:52.318Z,87841.00
2023-12-23T09:43:52.359Z,87837.00
2023-12-23T09:44:52.362Z,87836.00
2023-12-23T09:45:52.350Z,87841.00
2023-12-23T09:46:52.383Z,87838.00
2023-12-23T09:47:52.751Z,87828.00
2023-12-23T09:48:52.458Z,87827.00
2023-12-23T09:49:52.422Z,87827.00
2023-12-23T09:50:52.448Z,87831.00
2023-12-23T09:51:52.437Z,87835.00
2023-12-23T09:52:52.706Z,87834.00
2023-12-23T09:53:52.486Z,87836.00
2023-12-23T09:54:52.494Z,87845.00
2023-12-23T09:55:52.506Z,87848.00
2023-12-23T09:56:52.494Z,87848.00
2023-12-23T09:57:52.654Z,87847.00
2023-12-23T09:58:52.544Z,87842.00
2023-12-23T09:59:52.525Z,87838.00
2023-12-23T10:00:52.613Z,87833.00
2023-12-23T10:01:52.659Z,87831.00
2023-12-23T10:02:53.085Z,87837.00
2023-12-23T10:03:52.781Z,87838.00
2023-12-23T10:04:52.843Z,87836.00
2023-12-23T10:05:52.957Z,87829.00
2023-12-23T10:06:52.822Z,87825.00
2023-12-23T10:07:52.841Z,87830.00
2023-12-23T10:08:52.833Z,87835.00
2023-12-23T10:09:52.837Z,87837.00
2023-12-23T10:10:52.868Z,87832.00
2023-12-23T10:11:52.888Z,87835.00
2023-12-23T10:12:53.122Z,87843.00
2023-12-23T10:13:52.914Z,87845.00
2023-12-23T10:14:52.870Z,87840.00
2023-12-23T10:15:52.868Z,87836.00
2023-12-23T10:16:52.949Z,87841.00
2023-12-23T10:17:53.193Z,87844.00
2023-12-23T10:18:52.992Z,87838.00
2023-12-23T10:19:52.996Z,87832.00
2023-12-23T10:20:53.032Z,87836.00
2023-12-23T10:21:53.531Z,87826.00
2023-12-23T10:22:53.311Z,87819.00
2023-12-23T10:23:53.165Z,87819.00
2023-12-23T10:24:53.226Z,87822.00
2023-12-23T10:25:53.278Z,87816.00
2023-12-23T10:26:53.251Z,87808.00
2023-12-23T10:27:53.228Z,87813.00
2023-12-23T10:28:53.278Z,87816.00
2023-12-23T10:29:53.244Z,87820.00
2023-12-23T10:30:53.300Z,87818.00
2023-12-23T10:31:53.303Z,87809.00
2023-12-23T10:32:53.535Z,87791.00
2023-12-23T10:33:53.340Z,87772.00
2023-12-23T10:34:53.306Z,87779.00
2023-12-23T10:35:53.313Z,87784.00
2023-12-23T10:36:53.328Z,87790.00
2023-12-23T10:37:53.341Z,87786.00
2023-12-23T10:38:53.355Z,87784.00
2023-12-23T10:39:53.364Z,87784.00
2023-12-23T10:40:53.435Z,87785.00
2023-12-23T10:41:53.397Z,87789.00
2023-12-23T10:42:53.675Z,87790.00
2023-12-23T10:43:53.403Z,87781.00
2023-12-23T10:44:53.509Z,87776.00
2023-12-23T10:45:53.418Z,87776.00
2023-12-23T10:46:53.440Z,87774.00
2023-12-23T10:47:53.637Z,87775.00
2023-12-23T10:48:53.489Z,87775.00
2023-12-23T10:49:53.413Z,87774.00
2023-12-23T10:50:53.409Z,87780.00
2023-12-23T10:51:53.418Z,87778.00
2023-12-23T10:52:53.731Z,87768.00
2023-12-23T10:53:53.421Z,87762.00
2023-12-23T10:54:53.455Z,87760.00
2023-12-23T10:55:53.475Z,87768.00
2023-12-23T10:56:53.459Z,87772.00
2023-12-23T10:57:53.454Z,87779.00
2023-12-23T10:58:53.513Z,87779.00
2023-12-23T10:59:53.507Z,87774.00
2023-12-23T11:00:53.505Z,87775.00
2023-12-23T11:01:53.492Z,87777.00
2023-12-23T11:02:53.504Z,87775.00
2023-12-23T11:03:53.529Z,87767.00
2023-12-23T11:04:53.502Z,87760.00
2023-12-23T11:05:53.503Z,87764.00
2023-12-23T11:06:53.510Z,87773.00
2023-12-23T11:07:58.462Z,87770.00
2023-12-23T11:08:54.540Z,87769.00
2023-12-23T11:09:53.513Z,87777.00
2023-12-23T11:10:53.611Z,87780.00
2023-12-23T11:11:53.559Z,87781.00
2023-12-23T11:12:53.571Z,87783.00
2023-12-23T11:13:53.615Z,87780.00
2023-12-23T11:14:53.583Z,87772.00
2023-12-23T11:15:53.567Z,87770.00
2023-12-23T11:16:53.601Z,87774.00
2023-12-23T11:17:53.583Z,87779.00
2023-12-23T11:18:53.706Z,87779.00
2023-12-23T11:19:53.639Z,87768.00
2023-12-23T11:20:53.594Z,87760.00
2023-12-23T11:21:53.596Z,87755.00
2023-12-23T11:22:53.917Z,87753.00
2023-12-23T11:23:53.644Z,87761.00
2023-12-23T11:24:53.617Z,87772.00
2023-12-23T11:25:53.614Z,87769.00
2023-12-23T11:26:54.960Z,87774.00
2023-12-23T11:27:53.621Z,87780.00
2023-12-23T11:28:53.710Z,87768.00
2023-12-23T11:29:53.622Z,87748.00
2023-12-23T11:30:53.684Z,87737.00
2023-12-23T11:31:53.686Z,87743.00
2023-12-23T11:32:53.863Z,87751.00
2023-12-23T11:33:53.675Z,87756.00
2023-12-23T11:34:53.657Z,87747.00
2023-12-23T11:35:53.656Z,87734.00
2023-12-23T11:36:53.643Z,87736.00
2023-12-23T11:37:53.872Z,87742.00
2023-12-23T11:38:53.833Z,87736.00
2023-12-23T11:39:53.643Z,87736.00
2023-12-23T11:40:53.654Z,87739.00
2023-12-23T11:41:53.666Z,87739.00
2023-12-23T11:42:53.880Z,87739.00
2023-12-23T11:43:53.658Z,87747.00
2023-12-23T11:44:53.681Z,87758.00
2023-12-23T11:45:53.645Z,87763.00